RONDES DES CAPS 2018 le 25/08/2018

Recherche par Dossard : par Nom : par Club :

Place Dossard Nom Prenom Cat. Pl. Cat. Temps Club Sexe
1 571 THALY FABIO ES 1 01:23:02 S/L CAMN VILLEURBANNE M
2 534 JACQUES EDOUARD THIERRY V1 1 01:23:17 LA RENOVATION DE AUGRAIN M
3 1162 AUSTER TONY V1 2 01:28:47 MAIRIE S. (FT-DE-FRANCE) M
4 502 HAJJI YAHIA V1 3 01:30:02 GOLDEN STAR M
5 1161 QUENETTE JEAN-PHILIPPE V1 4 01:30:18 MAIRIE S. (FT-DE-FRANCE) M
6 723 ELISABETH DIDIER V1 5 01:31:45 AIGLON DU LAMENTIN M
7 615 RIBAC GERALD V1 6 01:32:37 VAUCLIN ATHLETIC CLUB M
8 374 BOUDEHEN LAURENT SE 1 01:32:54 M
9 1237 BELLIARD ARNAUD V1 7 01:33:28 33 RIMA M
10 1141 GUENGANT HEATHCLIFF V1 8 01:34:52 AIGLON DU LAMENTIN M
11 721 ATALA JEAN-MICHEL V2 1 01:35:24 GOLDEN STAR M
12 922 MELCHIOR MICA-OZIAS SE 2 01:35:33 VAUCLIN ATHLETIC CLUB M
13 404 DUFEAL JEAN-LUC V2 2 01:35:49 AIGLON DU LAMENTIN M
14 1207 MILLOUR ROMAIN SE 3 01:37:07 33 RIMA M
15 965 RALECHE PATRICK V1 9 01:37:38 LA RÉNOVATION M
16 528 FONDS FABRICE V1 10 01:39:02 GRENOUILLES BLEUES M
17 803 RESIDANT JOSE-MICHEL V2 3 01:40:29 VAUCLIN ATHLETIC CLUB M
18 471 LACRAMPE LOUIS FELIX V2 4 01:40:31 CLUB MANIKOU ORGANISATIONS M
19 82 MANUEL DESHAGETTE V1 11 01:40:59 M
20 1008 ERNEST MICKAEL V1 12 01:41:12 POLICE SPORTIVE M
21 879 COUTY Eric V1 13 01:41:26 M
22 624 CAROTINE JEAN-LUC V2 5 01:41:35 WINNER-TEAM M
23 278 PICHON YANNICK V1 14 01:41:53 M
24 683 ADAM ANTOINE SE 4 01:42:07 M
25 1139 FIRMIN FABRICE V1 15 01:42:53 M
26 1060 VIGILANT MIGUEL V1 16 01:42:54 ATHLETIC CLUB SALEEN M
27 806 PATTERY OLIVIER V1 17 01:43:08 ATHLETIC CLUB DU MARIN M
28 1257 LAURENTON WILLIAM SE 5 01:43:12 33 RIMA M
29 1099 MOUTAMALLE MARC V1 18 01:43:17 MAIRIE S. (FT-DE-FRANCE) M
30 961 COPPET JEAN-MICHEL V1 19 01:43:32 S/L OLYMPIQUE DE MARSEILLE ATHLE M
31 1222 MOURIDI Jayron SE 6 01:43:35 33 RIMA M
32 670 CABON SEBASTIEN V1 20 01:43:59 M
33 784 LOUIS CHRISTOPHE V1 21 01:44:34 M
34 1262 LUTIQUE AURELIEN SE 7 01:45:06 33 RIMA M
35 748 MAYNE GEOFFROY SE 8 01:45:20 GR|TRAINING M
36 416 MAREM AUGUSTIN V2 6 01:45:24 AM DES COUREURS DE FOND M
37 604 BERNARD PATRIC SE 9 01:45:29 TEAM SOUFFLE & ENERGIE M
38 1301 MORENI EMMANUEL ES 2 01:45:54 33 RIMA M
39 617 MELT JEAN MICHEL V1 22 01:45:57 WINNER-TEAM M
40 1001 MALEAU WILLY V2 7 01:45:58 M
41 1036 MICHALON LUDOVIC V1 23 01:46:10 M
42 1189 BOUTRON Raphaël SE 10 01:46:42 33 RIMA M
43 619 RAFFIN CAMILLE V3 1 01:47:01 WINNER-TEAM M
44 1253 THOREL STEVE V1 24 01:47:16 33 RIMA M
45 406 MARIE-ANGELIQUE RORO V1 25 01:47:22 AIGLON/CLUB MANIKOU /MAROSS/AMANGRI M
46 1199 TRAORÉ Moussa SE 11 01:47:47 33 RIMA M
47 249 MELLOT CHARLES V3 2 01:47:51 M
48 389 BELLEMARE BRUNO V1 26 01:48:11 M
49 1073 CASIMIR ALEX V3 3 01:48:17 M
50 901 JEAN-LUC SE 12 01:48:32 GR TRAINING M
51 793 MERMET VINCENT SE 13 01:48:55 M
52 295 MAALIKI ETIENNE SE 14 01:48:59 M
53 715 NINZOLI LUDOVIC SE 15 01:49:46 M
54 1264 TAIMANA JOHNSON SE 16 01:50:12 33 RIMA M
55 639 LORIOT ALAIN V2 8 01:50:14 AIGLON DU LAMENTIN M
56 429 OZIER LAFONTAINE DAVID V2 9 01:50:38 AMCF-TLT972 M
57 1165 LINEL Laurent SE 17 01:50:58 MAIRIE SPORTIVE M
58 1023 DORIZON JERRY V1 27 01:51:04 CLUB MANIKOU ORGANISATIONS M
59 121 ANGLIO EMILE V2 10 01:51:10 M
60 883 ARTHUR LUDOVIC V1 28 01:51:15 M
61 392 DEGRAS ALAIN V1 29 01:51:35 M
62 779 GARCIA FRANCOIS SE 18 01:51:39 M
63 622 ARATUS MAX V3 4 01:51:39 WINNER-TEAM M
64 817 ALAERTS MATHIEU SE 19 01:51:55 M
65 371 DUCATEZ ARNAUD V1 30 01:52:01 M
66 623 MORDELET JULIEN ES 3 01:52:06 M
67 81 DIAZ MICHEL SE 20 01:52:10 M
68 87 MOREAU JULIEN SE 21 01:52:10 M
69 1096 SALVADOR EDDY V1 31 01:52:18 CLUB MANIKOU ORGANISATIONS M
70 351 GEOFFROY SIMON SE 22 01:52:29 M
71 1034 FREMERY ALEXIS SE 23 01:52:37 M
72 400 CHARLES-HELENE BORIS V1 32 01:52:45 AIGLON DU LAMENTIN M
73 786 BOB ARNAUD SE 24 01:52:51 M
74 1216 DA SILVA Daniel SE 25 01:52:54 33 RIMA M
75 736 MILLIEN MICHEL SE 26 01:53:03 M
76 757 PASSONI SEBASTIEN SE 27 01:53:03 M
77 47 BLACODON MANUEL V2 11 01:53:11 M
78 1195 BARDIN Florian SE 28 01:53:12 33 RIMA M
79 148 CHAMBAZ ADRIEN SE 29 01:53:18 M
80 1286 FARNIER NICOLAS SE 30 01:53:32 33 RIMA M
81 245 COUTURE SAMUEL SE 31 01:54:00 M
82 358 VOITIER HUGUES V1 33 01:54:00 M
83 668 BESSALA-SAMOUT LIONEL SE 32 01:54:09 M
84 104 THEODORE MARIUS V2 12 01:54:14 M
85 325 SAVY FRANTZ V2 13 01:54:17 M
86 43 DUFAY PAUL SE 33 01:54:18 M
87 130 GEFFRAY GUILLAUME V1 34 01:54:21 M
88 636 BEAUJOLAIS MAURAY SE 34 01:54:41 M
89 505 ZERHOUNI DJEBRINE V2 14 01:54:51 GOLDEN STAR M
90 409 SURIC JEAN-PHILIPPE V1 35 01:54:55 AM DES COUREURS DE FOND M
91 1284 RAMA RODOLPHE ES 4 01:55:10 33 RIMA M
92 789 DUPRAZ SIMON SE 35 01:55:10 M
93 1020 RAKOTOARINOSY ROBY V2 15 01:55:13 M
94 939 BEAUSOLEIL PATRICE V1 36 01:55:15 M
95 729 THERESINE MARIUS V3 5 01:55:21 CLUB MANIKOU ORGANISATIONS M
96 448 DIERICKX JEROME V1 37 01:55:30 CCCE TRIATHLON CLUB M
97 920 MAURY LAURENT SE 36 01:55:38 M
98 776 GRANCOIN ANTHONY SE 37 01:55:41 M
99 1304 RUIZ THOMAS SE 38 01:55:49 33 RIMA M
100 340 ABGRALL GWENOLE SE 39 01:55:50 M
101 827 LACLE LOUIS V1 38 01:55:53 AIGLON DU LAMENTIN M
102 610 FRESNEAU REMI SE 40 01:55:56 VAUCLIN ATHLETIC CLUB M
103 345 MEILLAC DAVID V1 39 01:55:58 M
104 1287 LAURENT YANN V1 40 01:56:07 33 RIMA M
105 578 MAINGE ANDRE V2 16 01:56:14 SAM PARIS 12 M
106 524 ELISEE JACQUES V1 41 01:56:21 GOLDEN STAR M
107 1024 DELECROIX FLORIAN SE 41 01:56:36 M
108 484 EPHRITIKHINE IVAN SE 42 01:56:39 CSLG DE LA MARTINIQUE M
109 1315 GUENET JAMES SE 43 01:57:02 33 RIMA M
110 1007 RIER JONATHAN SE 44 01:57:28 M
111 594 ROUBLIQUE ELISABETH V1 1 01:57:38 TCHIMBE RAID F
112 791 JOSEPH REMY-ROBERT V1 42 01:57:38 MAIRIE S. (FT-DE-FRANCE) M
113 1122 JEAN-MARIE FABRICE V1 43 01:57:38 M
114 407 LEBOURDAIS FRANCK SE 45 01:58:03 LIVRY GARGAN M
115 1234 JAGUENAUD CHRISTOPHER ES 5 01:58:07 33 RIMA M
116 840 CARDA JEAN-BAPTISTE SE 46 01:58:17 M
117 527 CACLIN NICOLAS SE 47 01:58:21 GOLDEN STAR M
118 222 CHARLES STEEVE V1 44 01:58:22 M
119 350 BAUDE DAVID V1 45 01:58:32 M
120 49 ROSTAMASE PIERRE-LOUI V1 46 01:58:59 M
121 792 DEROUET JEAN-LUC V1 47 01:59:02 M
122 1021 SAUVET-GOICHON NICOLAS V1 48 01:59:06 M
123 1198 COTRET Anthony SE 48 01:59:12 33 RIMA M
124 298 MAGNÉ JEAN-MARIE V1 49 01:59:22 M
125 536 REINE RODRIGUE V2 17 01:59:25 LES BAROUDEURS MARTINIQUE M
126 1074 COURANT GUY V3 6 01:59:28 CLUB MANIKOU ORGANISATIONS M
127 1101 JEAN-PIERRE HENRI V1 50 01:59:34 M
128 652 PASTEL GAÉTANE V1 2 01:59:38 MAIRIE SPORTIVE F
129 78 FERDINAND ANTONIO V1 51 01:59:39 M
130 677 GATELIER WILFRIED SE 49 01:59:42 M
131 689 HILDERALD ISNARD V2 18 01:59:43 RENOVATION M
132 783 DASSE-VINAY LIONEL V2 19 01:59:50 M
133 695 LEFEUVRE MALO SE 50 02:00:01 M
134 1228 ARNOLD Dominique V1 52 02:00:12 33 RIMA M
135 1202 TODOROVIC Even ES 6 02:00:15 33 RIMA M
136 675 FOUCHARD DAVID SE 51 02:00:26 M
137 767 CANTAREL SYLVAIN SE 52 02:00:30 M
138 1314 VAVELIN DORIS ES 7 02:00:46 33 RIMA M
139 1258 HARIBOU ISSOUFI SE 53 02:00:50 33 RIMA M
140 36 FARGES ERIC SE 54 02:00:53 M
141 1261 HULIWA PIERRE SE 55 02:00:56 33 RIMA M
142 1256 FADUILA SOULAIMANA SE 56 02:01:06 33 RIMA M
143 1270 HAZAN MAGDIEL SE 57 02:01:09 33 RIMA M
144 1231 COMBETTES THIERRY V1 53 02:01:11 33 RIMA M
145 77 JACQUES-SEBASTIEN CHARLES V2 20 02:01:19 M
146 554 DESSERPRIT PASCALE V2 1 02:01:22 MAIRIE S. (FT-DE-FRANCE) F
147 841 BOUKHIL MOHAMED V2 21 02:01:26 M
148 972 BOUDART SANDRINE SE 1 02:01:31 F
149 1204 BOIRAL Terena SE 58 02:01:37 33 RIMA M
150 424 BOUTANT BERARD V1 54 02:01:46 AMCF M
151 718 ALLAIN CLAUDE V1 55 02:01:53 M
152 173 GELLYNCK FABRICE SE 59 02:01:59 M
153 586 LAMANDE STEVE V2 22 02:02:05 TCHIMBE RAID M
154 780 IGLESIAS TEDDY SE 60 02:02:11 M
155 396 BOULAY PASCAL V2 23 02:02:15 AM DES COUREURS DE FOND M
156 1280 POUATEBE YOAN ES 8 02:02:28 33 RIMA M
157 935 LOUIS-JOSEPH ALAIN V3 7 02:02:35 CG OEUVRES SOCIALES HOSPITALIERES M
158 1213 SOLIGNAC Jean-Jérôme V1 56 02:02:38 33 RIMA M
159 395 BIDOSSE DAVID V1 57 02:02:48 #FORZARUNNERS M
160 370 HENNUY NICOLAS V1 58 02:02:48 M
161 1250 PELLOQUET PIERRE SE 61 02:03:01 33 RIMA M
162 1184 RICO Romuald SE 62 02:03:03 33 RIMA M
163 229 FAVREAU LOGAN SE 63 02:03:12 M
164 436 AGASSEAU PHILIPPE SE 64 02:03:16 ASSAUT SAINT-PIERRE M
165 606 LECLERC MELANIE SE 2 02:03:16 TEAM SOUFFLE ET ENERGY F
166 544 BORRY BERNARD V1 59 02:03:28 MADININA BIKERS M
167 1181 BESNIER Laura SE 3 02:03:30 33 RIMA F
168 1125 VAUPRE FREDERIC SE 65 02:03:37 M
169 572 MARAN VALÉRIE V1 60 02:03:41 SAM HORIZON M
170 1210 CHASSERIAU Roméo SE 66 02:03:42 33 RIMA M
171 761 DADJO JOACKIM SE 67 02:03:51 M
172 994 CATALA PASCAL V2 24 02:04:02 M
173 206 BRUISSON JOSE V3 8 02:04:04 M
174 1145 CHAMBON ROMEO SE 68 02:04:07 M
175 72 LACOSTE ERIC V2 25 02:04:13 M
176 940 TAPON FREDERIC V2 26 02:04:20 ASSAUT SAINT-PIERRE M
177 861 HONORE THIERRY SE 69 02:04:22 GOLDEN STAR M
178 703 VARISOT FABRICE V1 61 02:04:29 RFO/AIGLON M
179 446 CROTET MATHIEU SE 70 02:04:36 M
180 1224 CORMOULS-HOULES Hugo SE 71 02:04:40 33 RIMA M
181 1129 CRATERE DANIEL V2 27 02:04:42 ASC SARA M
182 1221 THOMAS Jean SE 72 02:04:48 33 RIMA M
183 982 RUSTON VINCENT SE 73 02:04:51 M
184 405 ARZEL MATHILDE SE 4 02:04:57 AIGLON DU LAMENTIN F
185 790 DARROUZET FLORIAN SE 74 02:04:58 M
186 560 AGNOLY FRANÇOIS V2 28 02:05:00 MORNE CARETTE M
187 445 BRAVO YVAILLE-NICOLAS SE 75 02:05:03 M
188 296 JEAN-CHARLES CHRISTOPHE SE 76 02:05:08 M
189 854 DERNÉ NICOLAS SE 77 02:05:08 M
190 621 TABAR RAYMOND V2 29 02:05:12 WINNER-TEAM M
191 437 ARMANT DORIAN SE 78 02:05:17 ASSAUT SAINT-PIERRE M
192 1177 LAMACHE Denis SE 79 02:05:26 33 RIMA M
193 79 CAMPAGNE CLEMENCE SE 5 02:05:27 F
194 804 DOUVILLE KEVIN JU 1 02:05:33 LES BAROUDEURS MARTINIQUE M
195 658 RIVET ARMAND SE 80 02:05:35 M
196 1082 BOURDON LAURENT V1 62 02:05:50 CG OEUVRES SOCIALES HOSPITALIERES M
197 355 NESTILE LEON V3 9 02:05:53 M
198 773 BUSCHBAUM DANIEL SE 81 02:05:55 M
199 327 MINAR JEAN-MAX V1 63 02:05:58 M
200 138 RENE-CORAIL PHILIPPE V1 64 02:06:03 M
201 234 FLOBINUS HENRIUS RODOLPHE V2 30 02:06:09 M
202 568 LUCHEL JEAN-SEBASTIEN SE 82 02:06:16 REVEIL DE LA COTE CARAIBE M
203 679 GOURIN YANNICK V1 65 02:06:22 M
204 1208 ROUGET Arnaud SE 83 02:06:26 33 RIMA M
205 573 LANSADE ALEXANDRE SE 84 02:06:29 SAM HORIZON 2000 M
206 1136 FERDINAND JEAN-SÉBASTIEN SE 85 02:06:59 M
207 1050 ROSSET SYLVAIN SE 86 02:07:13 M
208 1092 SIBADO ALBERT V2 31 02:07:15 M
209 1093 PRIDEAU MARTINE SE 6 02:07:15 F
210 1100 ABBADIE JÉRÉMIE SE 87 02:07:26 M
211 1108 BOUISSAGUET UGO SE 88 02:07:27 M
212 21 JARRIN ISMAËL V1 66 02:07:45 M
213 613 VOLTINE GILLES V2 32 02:07:56 VAUCLIN ATHLETIC CLUB M
214 383 NERET RONY V1 67 02:08:00 M
215 687 GORVIEN GILLES V1 68 02:08:04 M
216 131 RAMIA JORDI SE 89 02:08:12 M
217 1254 BELDJILALI SAMIR SE 90 02:08:19 33 RIMA M
218 189 MORAND JOSE V3 10 02:08:54 M
219 466 PARIS DAVID V1 69 02:09:01 CLUB MANIKOU ORGANISATIONS M
220 1104 CRAMER YANNIS SE 91 02:09:03 M
221 1070 FABRICIUS MATTHIAS SE 92 02:09:29 M
222 605 CORTINOVIS OLIVIER V1 70 02:09:32 TEAM SOUFFLE & ENERGY M
223 442 HANNIBAL PATRICK V1 71 02:09:40 ATHLETIC CLUB SALEEN M
224 1197 TEVENINO Désiré SE 93 02:09:48 33 RIMA M
225 359 JOSEPH RICHARD V2 33 02:09:48 M
226 657 EDMOND PHILIPPE V1 72 02:09:51 M
227 588 ADELAĎDE YANNICK SE 94 02:09:52 TCHIMBE RAID M
228 129 BLAISON LAURENT V1 73 02:09:54 M
229 41 QUESNEL YANNICK V2 34 02:09:57 M
230 966 COURJON JONATHAN SE 95 02:10:10 M
231 777 BERGOT JEAN-CHRISTOPHE SE 96 02:10:14 M
232 401 GIBOYAU MARCEL V2 35 02:10:19 AIGLON DU LAMENTIN M
233 498 NELSON RODRIGUE SE 97 02:10:19 GOLDEN LION ST-JOSEPH M
234 1150 DUVAL PIERRE-HENRY SE 98 02:10:20 M
235 540 DE CHAVIGNY PAULINE SE 7 02:10:21 MADINFORM F
236 915 LEVIONNOIS JEAN-LUC V2 36 02:10:24 M
237 818 MINAR ERIC V1 74 02:10:27 M
238 1299 ROULIN BENJAMIN SE 99 02:10:34 33 RIMA M
239 1324 ARMINJON Eloi V2 37 02:10:48 M
240 37 MARIE-LUCE JACQUES V2 38 02:10:48 M
241 433 VIRAYIE JEAN V2 39 02:11:01 ASSAUT SAINT-PIERRE M
242 673 ELUECQUE ERIC V1 75 02:11:07 M
243 492 FORGARD GERMAIN V2 40 02:11:11 FOYER RURAL MORNE PITAULT M
244 794 LOUIS STEEVE SE 100 02:11:11 M
245 491 MACABRE CAMILLE V2 41 02:11:12 FOYER RURAL MORNE PITAULT M
246 958 PELAGE FRED V2 42 02:11:14 MANIKOU M
247 477 RISKWAIT CARINE V1 3 02:11:14 CLUB MANIKOU ORGANISATIONS F
248 1156 DANGEROS SIDOINE V2 43 02:11:18 MAIRIE S. (FT-DE-FRANCE) M
249 1077 CROISY PATRICK V2 44 02:11:19 M
250 318 GRIMONPREZ ANNABELLE SE 8 02:11:19 F
251 1014 VILLARSIN DAVID V2 45 02:11:21 M
252 746 MAS PIERRE SE 101 02:11:25 M
253 1317 MAUNOURY JOSEPH SE 102 02:11:28 33 RIMA M
254 241 BULLET ALEX V3 11 02:11:44 M
255 197 ROUVIER VIRGINIE V2 2 02:11:44 F
256 638 VALENTINO RUDDY V2 46 02:11:46 M
257 612 MARGUERITE JEAN-MAX V2 47 02:11:46 VAUCLIN ATHLETIC CLUB M
258 664 SIRIEIX GÉRALDINE V1 4 02:11:47 F
259 1203 SUARD Bryan ES 9 02:11:51 33 RIMA M
260 717 MONTHEARD DAVID V1 76 02:12:07 M
261 330 EUSTACHE AUDREY SE 9 02:12:08 F
262 713 VERGOS FRANCOIS SE 103 02:12:11 M
263 1290 RAUTUREAU LOGAN ES 10 02:12:15 33 RIMA M
264 1252 FARAUD CLAIRE SE 10 02:12:24 33 RIMA F
265 192 LUCIDARME ERIC V2 48 02:12:35 M
266 1152 VARASSE VINCENT V1 77 02:12:36 ACM M
267 725 VALERO NOEL SE 104 02:12:44 M
268 348 CANIS NICOLAS SE 105 02:12:45 M
269 443 SMAILI STEPHANIE V1 5 02:12:48 ATHLETIC CLUB SALEEN F
270 956 ERICHER EDDY V2 49 02:12:54 M
271 4 ORVILLE LAURENT SE 106 02:13:03 M
272 431 VOLTINE WILFRID V1 78 02:13:04 ASC PARIS M
273 781 BEGAT TONY V1 79 02:13:05 M
274 1316 AMAIRIA CYRIL SE 107 02:13:08 33 RIMA M
275 180 VISENTIN LAURENT V1 80 02:13:13 M
276 1295 LIBURD ROMEO SE 108 02:13:17 33 RIMA M
277 250 BATTAGLIA FATIMA V2 3 02:13:25 F
278 551 PULVAL-DADY THIERRY V1 81 02:13:31 MAIRIE S. (FT-DE-FRANCE) M
279 1230 FENOUILLET Jean-Pierre SE 109 02:13:37 33 RIMA M
280 1206 BORIE Axel SE 110 02:13:39 33 RIMA M
281 1267 LAIR SVANHILDE SE 11 02:13:42 33 RIMA F
282 235 CHARLES-FELICITE FRED V2 50 02:13:50 M
283 727 CONCONNE CHRISTOPHE V1 82 02:13:57 M
284 813 VALIAME VALENTIN V1 83 02:13:59 M
285 539 FIBLEUIL YVON V2 51 02:14:01 LMSE M
286 1097 ROSE RAYMOND V2 52 02:14:10 MAIRIE S. (FT-DE-FRANCE) M
287 1163 CINNA MURIEL V2 4 02:14:13 MAIRIE S. (FT-DE-FRANCE) F
288 119 GODFROID JUSTINE SE 12 02:14:18 F
289 952 SCHOLASTIQUE JEAN-CHRISTOPHE SE 111 02:14:33 M
290 1041 PETIT PASCALE V1 6 02:14:33 F
291 531 THIBAULT MANUEL V1 84 02:14:34 KAWANN TRIATHLON CLUB M
292 1220 BARDINOT Charles SE 112 02:14:48 33 RIMA M
293 377 TORRENT MICHEL V3 12 02:14:50 M
294 855 CASSILDE CYRIL SE 113 02:14:54 M
295 375 ROBERT TRAEGER FABRICE SE 114 02:14:57 M
296 955 RONOT ARNAUD RODOLPHE SE 115 02:14:58 M
297 414 BERING HENRI V1 85 02:15:01 AM DES COUREURS DE FOND M
298 279 JOSEPH GILLES V1 86 02:15:01 M
299 145 LARCHER DAVID V1 87 02:15:02 M
300 1242 ADAMIS JOHNY SE 116 02:15:07 33 RIMA M
301 740 YALA YANN SE 117 02:15:09 GOLDEN STAR M
302 592 NEHR ISABELLE V2 5 02:15:14 TCHIMBE RAID F
303 42 CHOUX CAROLE SE 13 02:15:21 F
304 635 BERNARD JÉRÔME SE 118 02:15:25 M
305 710 THIBAULT BENJAMIN SE 119 02:15:30 M
306 732 SOLIS PATRICE V2 53 02:15:36 M
307 656 EDMOND SANDRA V1 7 02:15:38 F
308 26 FILIN-BAUWENS JASMINE SE 14 02:15:38 F
309 48 JEAN-BAPTISTE-SIMONE PASCAL V2 54 02:15:43 M
310 1260 BEALO ROCK-LAZARD ES 11 02:15:47 33 RIMA M
311 1291 TEGARIPA MOANA SE 120 02:15:48 33 RIMA M
312 260 MONTOUT CHRISTINE V1 8 02:15:49 F
313 973 DE LUCY DE FOSSARIEU THIERRY V2 55 02:15:54 M
314 1117 RAGOT EMMANUEL V1 88 02:15:58 CLUB MANIKOU ORGANISATIONS M
315 1186 EMERAND Laurent V1 89 02:16:00 33 RIMA M
316 918 DUTRIEUX PIERRE V1 90 02:16:02 M
317 485 LOUIS MARIE JOEL V1 91 02:16:20 DASSAULT SPORTS SURESNES M
318 1175 BESSERER Pierre SE 121 02:16:27 33 RIMA M
319 526 NAUD STEPHANE SE 122 02:16:30 GOLDEN STAR M
320 310 NORMANT PATRICK SE 123 02:16:43 M
321 805 RENCIOT CHRISTELE V1 9 02:16:47 GOLDEN STAR F
322 1042 CRATER RICHARD V1 92 02:16:49 PASSE J AIME COURRIER FFA M
323 356 HINAUT RONAN SE 124 02:17:00 M
324 1180 SALAS Laurent ES 12 02:17:03 33 RIMA M
325 1201 RAFFARD Steven ES 13 02:17:03 33 RIMA M
326 369 VIALETTE JÉRÔME SE 125 02:17:33 M
327 1276 PRIME MICKAEL SE 126 02:17:52 33 RIMA M
328 759 PAOLA VALÉRY V1 93 02:18:11 M
329 1321 HOLLAND - DANET Melissa - Yann SE 1 02:18:15 Les Baroudeurs X
330 326 FERREIRA THIERRY V1 94 02:18:20 M
331 906 DEBRAY STEPHANE V1 95 02:18:21 M
332 399 RENEAUME FRANCOIS V2 56 02:18:25 AIGLON DU LAMENTIN M
333 811 LACLEF OLIVIER V1 96 02:18:26 M
334 1278 LESIEUR GAETAN SE 127 02:18:29 33 RIMA M
335 719 HENRY LAURENT V2 57 02:18:36 CLUB MANIKOU ORGANISATIONS M
336 629 CAPRICE PHILIPPE V1 97 02:18:37 M
337 583 EMONIDES MARIE-CHANTAL V2 6 02:18:55 TCHIMBE RAID F
338 53 MONGIS JEAN MICHEL V2 58 02:18:56 M
339 963 CINNA ALAIN JONAS V2 59 02:19:04 M
340 728 KUBIACZIK LIONEL V1 98 02:19:05 M
341 167 VIGNÉ WILEM SE 128 02:19:05 M
342 663 BAURAS YANNICQUES V2 7 02:19:12 F
343 672 EBISSOU DAVY SE 129 02:19:23 M
344 9 FORTUNE FREDERIC SE 130 02:19:38 M
345 816 TRAVAILLEUR JEAN CLAUDE V2 60 02:19:48 AMCF M
346 541 DEGRAVE CHARLOTTE V2 8 02:19:55 MADININA BIKERS F
347 1065 GIGON-DESORMERIE LAURENT ES 14 02:19:57 LES BAROUDEURS M
348 1285 BOURIGAULT LILIAN ES 15 02:19:59 33 RIMA M
349 930 BRUNO JOSEPH-REINETTE V1 99 02:20:08 M
350 139 GIACOMETTI JACQUES V3 13 02:20:12 M
351 182 BRU TRISTAN SE 131 02:20:21 M
352 55 CHABOT JEROME V1 100 02:20:24 M
353 238 HILMOINE JEAN-MICHEL V1 101 02:20:31 M
354 84 PIERRE-LOUIS PATRICK V2 61 02:20:38 M
355 1283 ISMAILA BACAR ES 16 02:20:41 33 RIMA M
356 1293 AMODRU KEVIN ES 17 02:20:43 33 RIMA M
357 123 VALSIN GEORGES V2 62 02:20:45 M
358 970 JANNIN JORDANE SE 132 02:20:46 M
359 35 CARBONI ROMAIN SE 133 02:20:50 M
360 512 TOUSSAINT TANYA SE 15 02:20:54 GOLDEN STAR F
361 741 MACARONUS RONY V1 102 02:21:01 M
362 1017 LE NOACH PHILIPPE SE 134 02:21:02 M
363 111 EMPIS SEBASTIEN V1 103 02:21:06 M
364 771 MANYRI JACQUES FRANCOIS V1 104 02:21:07 M
365 117 CHEMIN CATTHALEN SE 16 02:21:10 F
366 926 SAINVILLE FRANCIS V1 105 02:21:10 M
367 1232 LEMARIE GREGORY SE 135 02:21:11 33 RIMA M
368 722 POELS THIERRY V1 106 02:21:17 M
369 1218 GOURDIN Nicolas SE 136 02:21:23 33 RIMA M
370 968 BAZILLIO PASCAL V2 63 02:21:34 M
371 566 CHARRIOT SÉBASTIEN SE 137 02:21:44 RDCCOMARMEES M
372 272 BELLEGARDE DAVID SE 138 02:21:47 M
373 913 VALEY NATHALIE V1 10 02:21:51 F
374 912 DAMAS CESAIRE V3 14 02:21:53 M
375 1233 CLAIRE Patrice SE 139 02:21:54 33 RIMA M
376 846 GYRE YOHANNES SE 140 02:22:03 M
377 339 ARICAT ROSE-ADELE SE 17 02:22:05 F
378 1174 FREYERMUTH Nicolas SE 141 02:22:08 33 RIMA M
379 169 SAINTLOUIS GILBERT V2 64 02:22:08 M
380 1269 DAUDIN MARAMA SE 142 02:22:08 33 RIMA M
381 521 JOSEPH KARENE SE 18 02:22:08 GOLDEN STAR F
382 567 ROCHE JEAN-MARC V1 107 02:22:15 RENOVATION M
383 59 MERLINI MARYSE V1 11 02:22:17 F
384 1084 DIVAL VINCENT V1 108 02:22:18 M
385 1223 GASMI Mehdi SE 143 02:22:19 33 RIMA M
386 1215 MADOU Raďssa ES 1 02:22:19 33 RIMA F
387 163 PAVILLA PATRICIA V1 12 02:22:27 F
388 829 GAU JEAN-FRANCOIS SE 144 02:22:30 M
389 11 YANG TING JEAN LOUIS V2 65 02:22:37 M
390 774 PHULPIN NICOLAS V1 109 02:22:39 M
391 1028 BOZZARELLI FRANK V1 110 02:22:41 M
392 598 HONORE YANN V1 111 02:22:50 TCHIMBE RAID M
393 886 BADORC LIONEL SE 145 02:22:56 M
394 825 BIASIN EVA ES 2 02:23:10 F
395 183 GRONDIN JEAN-FRANCOIS SE 146 02:23:10 M
396 655 BRENEOL DENIS V1 112 02:23:13 M
397 415 CLOTAIL HERVE V2 66 02:23:17 AM DES COUREURS DE FOND M
398 1132 BELROSE GERVAIS V3 15 02:23:21 ASC SARA M
399 582 CURFS HUBERT V3 16 02:23:32 TCHIMBE RAID M
400 962 ARMEDE RODDY V1 113 02:23:39 CLUB MANIKOU ORGANISATIONS M
401 67 AMBROISINE JEAN-LOĎC V1 114 02:23:40 M
402 1126 PAKO ALICK V2 67 02:23:44 M
403 599 RAFFIN HERVE V1 115 02:23:57 TCHIMBE RAID M
404 716 MOUSSA BEN SE 147 02:24:00 M
405 1051 WEISS YOHAN SE 148 02:24:13 M
406 625 REGIS PHILIPPE ANDRE V2 68 02:24:17 M
407 68 CERTAIN JACQUES V2 69 02:24:23 M
408 690 SABIN OLIVIER V1 116 02:24:24 M
409 517 MONIER GREGORY SE 149 02:24:24 GOLDEN STAR M
410 1298 GUILLERE TOMMY SE 150 02:24:25 33 RIMA M
411 896 DUTRUEL AUDREY SE 19 02:24:25 GOLDEN STAR F
412 500 ROGES JOCELYN V3 17 02:24:25 GOLDEN STAR M
413 114 VALDOR BRICE SE 151 02:24:28 M
414 932 GIBERNÉ DENIS V2 70 02:24:32 M
415 898 HIERSO JOSÉ V3 18 02:24:34 M
416 942 ADELAIDE LEILA SE 20 02:24:35 F
417 1078 BARAL ANGELIN V3 19 02:24:36 M
418 574 JEREMIE TONY V1 117 02:24:39 SAM HORIZON 2000 M
419 269 PIDERI JEAN LUC V1 118 02:24:41 M
420 354 MININ FELIX DENIS V2 71 02:24:46 M
421 165 JACQUES GUSTAVE MAGUY V2 9 02:24:49 F
422 108 ALVAREZ JULIO SE 152 02:24:55 M
423 1137 THEROND SOPHIE ES 3 02:24:56 F
424 504 DE FRANCIOSI PHILIPPE V2 72 02:25:00 GOLDEN STAR M
425 105 KONICKI LAURENT V1 119 02:25:06 M
426 496 DAVID MARCHE V1 120 02:25:26 GIE M
427 221 CARAZA PAUL V2 73 02:25:32 M
428 977 STEPHAN MARIE SE 21 02:25:32 F
429 368 DORÉE DAVID V1 121 02:25:34 M
430 276 DELABIE PIERRE SE 153 02:25:54 M
431 303 GUISSET PASCALE V2 10 02:25:56 F
432 1326 ZONDE Henri V3 20 02:26:00 M
433 593 PERFINI MAURICE V1 122 02:26:01 TCHIMBE RAID M
434 747 HILLION PATRICK V2 74 02:26:03 TCHIMBE RAID M
435 545 LOURIOUX PEGGY V1 13 02:26:24 MADININABIKERS F
436 563 LABEL FRANCE V2 11 02:26:33 OSONS DECOUVRIR F
437 678 GEORGELIN YANN SE 154 02:26:45 M
438 1095 ROMAGNE RAYMOND V2 75 02:26:51 M
439 714 ROUYER FRANCOIS SE 155 02:26:52 M
440 1307 JOSEPH-MATHIEU DANIEL SE 156 02:26:58 33 RIMA M
441 258 CLERENCE ANATOLE V2 76 02:26:58 M
442 1318 SIEGLER JONATHAN SE 157 02:27:05 33 RIMA M
443 1053 MENETRIER GAUTIER ES 18 02:27:05 M
444 1052 LE CORRE ETIENNE SE 158 02:27:05 M
445 1039 CÔTE DAVID SE 159 02:27:06 M
446 995 JULIENO CHARLES V3 21 02:27:09 TCHIMBE RAID M
447 196 VILLAGEOIS ANNICK V2 12 02:27:14 F
448 161 DEROTUS SAMUEL V2 77 02:27:14 M
449 708 LAGRANGE PASCAL V1 123 02:27:15 M
450 682 JEROME XAVIER V1 124 02:27:33 M
451 1289 MARECAUX GERARD SE 160 02:27:34 33 RIMA M
452 1167 SULTY JEAN-LOUIS V1 125 02:27:37 M
453 975 CARASSOU PAUL SE 161 02:27:46 M
454 686 THEODORE ALAIN V2 78 02:27:52 M
455 530 HOULLIER TONNY V1 126 02:27:54 M
456 1158 FERNANDEZ PIERRE V2 79 02:27:57 MAIRIE S. (FT-DE-FRANCE) M
457 522 DASSE-VINAY CLÉMENCE JU 1 02:28:00 GOLDEN STAR F
458 660 DANIEL STÉPHANE SE 162 02:28:03 M
459 867 DEGRAIN MARIE-EDMEE V2 13 02:28:08 F
460 146 JOLLY MATTHIEU V1 127 02:28:09 M
461 1226 MARCILLE Bruno SE 163 02:28:10 33 RIMA M
462 198 DANIEL JULIEN SE 164 02:28:16 M
463 809 MAVINGA JOCELYN V1 128 02:28:18 M
464 232 MURTE JOSETTE V2 14 02:28:19 F
465 426 BRITHMER MATHIAS V2 80 02:28:23 AMCF M
466 127 ROSSIGNOL STEPHANIE SE 22 02:28:24 F
467 907 MARGUERITE MARVIN JU 2 02:28:25 VAUCLIN ATHLETIC CLUB M
468 1219 LEGUIER THIERY SE 165 02:28:32 33 RIMA M
469 474 DUGUET AMBROISE V2 81 02:28:34 CLUB MANIKOU ORGANISATIONS M
470 587 FABRICIUS PIERRE V3 22 02:28:38 TCHIMBE RAID M
471 680 GOURMEL NICOLAS SE 166 02:28:45 M
472 1292 TOURE AMADOU BAMBA SE 167 02:28:58 33 RIMA M
473 516 LONDE MAURICE V1 129 02:29:06 GOLDEN STAR M
474 61 COUPE GREGORY V1 130 02:29:27 M
475 60 COUPE HUGO ES 19 02:29:27 M
476 905 VALTON LOUIS SE 168 02:29:35 M
477 1217 BRILLAULT Sylvain SE 169 02:29:37 33 RIMA M
478 1243 TROBRILLANT BRICE V4 1 02:29:48 33 RIMA M
479 1138 FAURIEUX YANNICK V2 82 02:29:53 TLT972-MANIKOU-FX C M
480 475 DUGUET BENOIT V2 83 02:30:00 CLUB MANIKOU ORGANISATIONS M
481 927 DUCHEL MONDESIR MARIE-FRANCOISE V2 15 02:30:02 TCHIMBE RAID F
482 461 BERTHIAS SYLVAIN V1 131 02:30:03 CLUB MANIKOU ORGANISATIONS M
483 1069 BELLIER DENIS V1 132 02:30:05 M
484 1308 CAROUMBIN-VIRAPIN CHRISTOPHER ES 20 02:30:07 33 RIMA M
485 853 RAVIN CATHIA V1 14 02:30:08 F
486 216 SUFRIN GUY-MARC V1 133 02:30:17 M
487 950 LEDUC FREDERIC SE 170 02:30:22 M
488 654 PIMPY JEAN-ALBERT V2 84 02:30:24 AMCF M
489 692 LOUISON JEAN-MICHEL V2 85 02:30:26 M
490 288 SALVIN MANUEL SE 171 02:30:28 M
491 797 MALGOGNE ROMAIN SE 172 02:30:34 M
492 1196 ADENET Hencrick ES 21 02:30:35 33 RIMA M
493 1194 SAIDALI Ibrahim SE 173 02:30:35 33 RIMA M
494 428 QUIATOL SONIA V1 15 02:30:37 AMCF F
495 535 DERRIEN GAEL SE 174 02:30:45 L ALLIANCE DE CALIFORNIE M
496 857 DOUVILLE BENOÎT V1 134 02:30:54 M
497 782 STOCKLI JULIEN SE 175 02:30:59 M
498 366 PELTI Valerie V1 16 02:31:02 F
499 174 ROUX SEBASTIEN V1 135 02:31:06 M
500 322 CAILLET LAURENT V1 136 02:31:11 M
501 513 GROS-DESORMEAUX MORJON SANDRINE V1 17 02:31:25 GOLDEN STAR F
502 373 GUY PATRICE V1 137 02:31:25 M
503 742 CROUZIL FABRICE V1 138 02:31:33 M
504 576 CHARODIN MICHEL V1 139 02:31:34 SAM HORIZON 2000 M
505 1157 VILLAGEOIS WILLIAM V1 140 02:31:36 MAIRIE S. (FT-DE-FRANCE) M
506 1173 MARTY SEBASTIEN V1 141 02:31:41 33 RIMA M
507 1248 SAINT-ALBIN CYRILLE SE 176 02:31:47 33 RIMA M
508 959 OCTAVE RUDY SE 177 02:31:49 M
509 172 MERCIER CELINE V1 18 02:31:53 F
510 1251 RAJAONARY MARCEL SE 178 02:31:55 33 RIMA M
511 1296 PATHIAIA KILLIAN SE 179 02:31:57 33 RIMA M
512 142 BARET LAETITIA V1 19 02:32:02 F
513 726 DORMEAU KATIA V1 20 02:32:03 F
514 591 LOUISE FRED V2 86 02:32:05 TCHIMBE RAID M
515 843 BERARD BENOIT V1 142 02:32:09 M
516 468 MARQUISE KATE V2 16 02:32:17 CLUB MANIKOU ORGANISATIONS F
517 155 MONOTUKA REGINE V1 21 02:32:21 F
518 331 DARIBO ROGER V2 87 02:32:21 M
519 553 DE LEPINE RUDY V1 143 02:32:28 MAIRIE S. (FT-DE-FRANCE) M
520 352 GALY MARYSE V1 22 02:32:29 F
521 184 BOURGADE MÉNARD V1 144 02:32:29 M
522 1288 BENETOLLO LAURA SE 23 02:32:39 33 RIMA F
523 943 ADELAIDE WILTORD V2 88 02:32:50 M
524 204 ASSEGHLI RACHID V1 145 02:32:59 M
525 529 GROS DESORMEAUX FABRICE SE 180 02:33:01 M
526 1312 REBOUILLAT LEVY ES 22 02:33:02 33 RIMA M
527 386 ADJUTOR GEORGY V3 23 02:33:05 M
528 349 AUBÉ LAETITIA V1 23 02:33:05 F
529 1249 ROSSIGNOL OLIVIER V1 146 02:33:07 33 RIMA M
530 319 MARRAUD DES GROTTES FABRICE V1 147 02:33:09 M
531 874 BIREAU MARION SE 24 02:33:10 F
532 1000 THIMON ELY V2 89 02:33:13 M
533 413 GOUNOUMAN CLAUDE V3 24 02:33:23 AM DES COUREURS DE FOND M
534 223 CRATER ANGELE SE 25 02:33:26 F
535 833 NERE ALAIN V1 148 02:33:26 M
536 908 SUAU SERGE V2 90 02:33:28 M
537 50 BELLEAU LAURENT V2 91 02:33:46 M
538 967 COURJON MATTHIAS SE 181 02:33:47 M
539 441 SOUNDOROM RODRIGUE SE 182 02:33:51 ATHLETIC CLUB SALEEN M
540 476 VETRAL ERIC V2 92 02:33:58 CLUB MANIKOU ORGANISATIONS M
541 64 MAUILLON GÉRALDINE SE 26 02:33:59 F
542 802 MADELENAT JEAN-CHARLES V1 149 02:34:07 AIGLON DU LAMENTIN M
543 561 STEFANETTO GEOFFREY SE 183 02:34:08 N.T.M. M
544 277 TENITRI THEODORE V1 150 02:34:17 M
545 859 EGESIPE JULES V3 25 02:34:18 M
546 227 JOCK LAURENT V1 151 02:34:28 M
547 193 SALOMON NICOLAS V2 93 02:34:33 M
548 487 BLAND-MURCIANO LAETITIA V1 24 02:34:33 FFA F
549 122 CHANCE ARMEL V3 26 02:34:40 M
550 393 GAUVIN NICOLAS V1 152 02:34:49 M
551 557 DALY-VIVIES KATHLEEN V1 25 02:34:56 MANIKOU F
552 1273 BOUKOULT LYECE ES 23 02:34:59 33 RIMA M
553 94 POULIN JEAN-FRANÇOIS SE 184 02:35:04 M
554 850 PASQUEREAU BASILE ES 24 02:35:06 M
555 960 IINUMA EMIKO V1 26 02:35:12 CLUB MANIKOU ORGANISATIONS F
556 938 CHAMIOT MARION SE 27 02:35:13 PLI O F
557 1310 CASTAN JULIE SE 28 02:35:21 33 RIMA F
558 1085 PEL NATHALIE V1 27 02:35:28 F
559 580 LOUIS-MARIE MARC V1 153 02:35:30 STT M
560 532 VANDERVLIET ALAIN V1 154 02:35:37 LA 3 M
561 810 MACED PHILIPPE V2 94 02:35:46 GOLDEN STAR M
562 951 PESLAGES JHONNY V2 95 02:35:54 M
563 252 BELROSE ERIC SE 185 02:35:59 M
564 469 ANGEVIN ANNICK V2 17 02:36:02 CLUB MANIKOU ORGANISATIONS F
565 691 DELLEVI VERONIQUE V1 28 02:36:07 ASSOCIATION MARIN CLUB F
566 785 LOPEZ GUILLAUME SE 186 02:36:07 M
567 699 EMELIE NELLY V1 29 02:36:08 ASSOCIATION MARIN CLUB F
568 1313 TAIORE MATHIEU SE 187 02:36:10 33 RIMA M
569 1004 GUEREDRAT THIERRY V1 155 02:36:12 M
570 822 DUHAMEL CATHERINE V1 30 02:36:13 GOLDEN STAR F
571 75 ROCHER JEROME V1 156 02:36:13 M
572 542 BRU MICHELE V2 18 02:36:15 MADININA BIKERS F
573 338 ANTIBE JACQUES V2 96 02:36:24 M
574 681 CERETUS ELODIE SE 29 02:36:30 VAUCLIN ATHLETIC CLUB F
575 488 BELLEMARE PAT V1 157 02:36:34 FLYING MANGOOSE M
576 866 MENIR BERNARD V1 158 02:36:44 M
577 984 PAMPHILE MADDY-NINA SE 30 02:36:47 F
578 983 RENCIOT ISABELLE SE 31 02:36:47 F
579 750 ANIN WILLIAM SE 188 02:36:50 SAM HORIZON 2000 M
580 1143 LE COZ FANNY SE 32 02:36:50 ASL MARONI F
581 884 LE GALL LUDIVINE SE 33 02:36:54 F
582 1320 POIROT ANTOINE ES 25 02:37:02 33 RIMA M
583 46 VENTADOUR RENÉ V2 97 02:37:08 M
584 19 MEGHIT-DELPECH FATIHA V1 31 02:37:09 F
585 199 PICOT MAGALI SE 34 02:37:09 F
586 616 SAINTE-ROSE-FRANCHINE LIONEL SE 189 02:37:11 VAUCLIN ATHLETIC CLUB M
587 141 PALMONT STEPHANE SE 190 02:37:18 M
588 151 GUACIDE KENNY SE 191 02:37:23 M
589 564 MARIE-SAINTE MARCEL V2 98 02:37:36 OSONS DECOUVRIR M
590 306 MADKAUD MAX MICHEL V4 2 02:37:37 M
591 408 KOWALSKI DOMINIQUE V2 99 02:37:42 AM DES COUREURS DE FOND M
592 1134 NELA BLAISE V2 100 02:37:43 M
593 788 REGNIE MARIE-CHARLOTTE SE 35 02:37:45 F
594 92 FERRAH AXEL ES 26 02:37:51 M
595 662 JEAN LISE-ANNE V2 19 02:37:57 F
596 1131 CAYOL STEPHANE SE 192 02:38:00 ASC SARA M
597 247 ELOIDIN JACQUES V1 159 02:38:16 M
598 904 BICHON ANNE MARIE SE 36 02:38:22 F
599 472 MICHEL MAX V4 3 02:38:27 CLUB MANIKOU ORGANISATIONS M
600 979 JOACHIM JEAN-YVES SE 193 02:38:31 M
601 430 GALLET DE SAINT-AURIN CHRISTOPHE V1 160 02:38:33 ANTILLES DIAG M
602 128 MADKAUD YVES MICHEL V2 101 02:38:38 M
603 251 STEWART CAROL V1 32 02:38:40 F
604 1303 COLLARD DIMITRI SE 194 02:38:40 33 RIMA M
605 336 VALIDE SYLVIA V2 20 02:38:43 F
606 185 BALTIDE YOURI V1 161 02:38:45 M
607 66 BERNET ELOI SE 195 02:38:45 M
608 411 FILET FRANTZ V1 162 02:38:46 AM DES COUREURS DE FOND M
609 992 CHIRON HAROLD SE 196 02:38:53 M
610 685 MARCHAIS HUBERT V2 102 02:38:55 M
611 153 ROSINE VIRGINIE V1 33 02:38:58 F
612 480 GOLD DALG CATHERINE V2 21 02:39:00 CLUB MANIKOU ORGANISATIONS F
613 693 PALCY BETTY V1 34 02:39:00 F
614 697 LOHEZIC SOPHIE SE 37 02:39:05 F
615 360 ADENET-LOUVET DENIS V2 103 02:39:06 M
616 698 MARCHAND STEPHANE V1 163 02:39:06 M
617 694 LE TURNIER NICOLAS SE 197 02:39:07 M
618 1225 LEMO Soane SE 198 02:39:19 33 RIMA M
619 914 SAINT-PRIX RÉGINE V2 22 02:39:23 F
620 795 POLI ALEXANDRE SE 199 02:39:25 M
621 134 SALAUN OLIVIER SE 200 02:39:27 M
622 195 ALBRECHT ADELYNE SE 38 02:39:28 F
623 458 VIGOUROUX OLIVIER V2 104 02:39:41 CLUB MANIKOU ORGANISATIONS M
624 946 GERMACK JACQUELINE V3 1 02:39:44 F
625 558 BRACO GRATIEN V2 105 02:39:44 MANIKOU ORGANISATIONS M
626 828 ASTAMBIDE THIERRY V2 106 02:40:13 CLUB MANIKOU ORGANISATIONS M
627 925 FIRMIN MARIE CLAUDE V1 35 02:40:14 FLYING MANGOOSE F
628 821 LOISEL MICHEL V1 164 02:40:15 M
629 337 DONNIZAUX CLAIRE V1 36 02:40:15 F
630 1244 DELASSE DANIEL V1 165 02:40:26 33 RIMA M
631 76 RENE-LOUIS-ARTHUR ODILE V1 37 02:40:29 F
632 515 MANUEL YVAN V1 166 02:40:36 GOLDEN STAR M
633 211 MITH PIERRE V2 107 02:40:37 M
634 6 PARIS PIERRE-HENRY SE 201 02:40:39 M
635 808 MELEZAN KATHY SE 39 02:40:59 F
636 842 MELEZAN PEGGY SE 40 02:40:59 F
637 919 JOACHIM SYLVAIN V1 167 02:41:02 M
638 1109 RIGAUDY CORINNE V1 38 02:41:06 F
639 1013 COURAGEOT EMMANUEL SE 202 02:41:09 M
640 631 RAMIRES LAURENT V1 168 02:41:12 M
641 470 LAHOUL CYNTHIA V2 23 02:41:24 CLUB MANIKOU ORGANISATIONS F
642 125 GLONDU MIGUEL V2 108 02:41:30 M
643 372 GALEA MARION SE 41 02:41:32 F
644 880 PEREZ-GARCIA SEBASTIEN V1 169 02:41:36 M
645 285 BOUNGO LUDWIG JU 3 02:41:40 M
646 1323 ROUBLIQUE - GARÇON Jules - Annaelle SE 2 02:41:43 Les Baroudeurs X
647 1172 HAUSTANT THIERRY V2 109 02:41:56 M
648 421 JEANNE TANIA V1 39 02:42:02 AM DES COUREURS DE FOND F
649 752 SYMPHOR STEPHANE V1 170 02:42:09 SAM HORIZON 2000 M
650 301 HELOISE CLAUDE V2 110 02:42:09 M
651 364 ANNEBICQUE MARIE-HÉLČNE V1 40 02:42:21 F
652 1124 DEBES DIDIER V1 171 02:42:25 M
653 1123 DEBES SANDRINE V1 41 02:42:25 F
654 80 ABSALON AURÉLIE SE 42 02:42:28 F
655 1322 GERMANY - PLUTON Florian - Elya SE 3 02:42:33 Les Baroudeurs X
656 403 LUCE JOSEPH V1 172 02:42:34 AIGLON DU LAMENTIN M
657 704 GUILLOU NICOLAS SE 203 02:42:36 M
658 14 RAGOT FRANCK BERTRAND V1 173 02:42:43 M
659 1076 BOIS MARC-OLIVIER SE 204 02:42:45 M
660 796 POLI INGRID SE 43 02:42:48 F
661 1263 FAURE PAUL ES 27 02:43:00 33 RIMA M
662 1061 BLONDEAU PATRICK V2 111 02:43:05 M
663 760 OZIER MICKAËL SE 205 02:43:33 M
664 137 EUZET LINDA V1 42 02:43:38 F
665 1079 SMERALDA MARIE-AMEE V1 43 02:43:44 F
666 3 MERIAN NICOLAS V1 174 02:43:48 M
667 1068 LOUIS JOSEPH MICHAEL V1 175 02:44:00 LES BAROUDEURS MARTINIQUE M
668 33 SAINTE-CATHERINE ALBERT V2 112 02:44:01 M
669 1209 CABANES Sophie V1 44 02:44:05 33 RIMA F
670 259 BRICE EDDY V1 176 02:44:16 M
671 1170 MIRANDE VALERY V1 177 02:44:19 M
672 353 KOSTINE ALAIN V3 27 02:44:27 M
673 126 HENRI ELODIE SE 44 02:44:33 F
674 307 VOLANGER ROBERTO V1 178 02:44:36 M
675 440 VERT-PRE NICOLAS SE 206 02:44:37 ASSAUT SAINT-PIERRE M
676 1026 PERASTE GERARD V3 28 02:44:58 AM DES COUREURS DE FOND M
677 380 AGRICOLE NATHALIE SE 45 02:45:00 F
678 550 LAIGLE ROSITA SE 46 02:45:00 MADIN SCAPADE F
679 378 RECHOU SAMUEL V1 179 02:45:00 M
680 735 RENARD WILLY V2 113 02:45:00 CLUB MANIKOU ORGANISATIONS M
681 1106 AZEROT EDDY V1 180 02:45:06 M
682 537 LAGUERRE HERVE V2 114 02:45:12 LES BAROUDEURS MARTINIQUE M
683 1015 ESVAN MÉLISSA SE 47 02:45:20 F
684 1018 RIVIČRE RAPHAËL V1 181 02:45:20 M
685 1016 MALLET GUILLAUME SE 207 02:45:22 M
686 851 BALLY CELINE V1 45 02:45:31 CLUB MANIKOU ORGANISATIONS F
687 1045 CARPENTIER CHRISTOPHE SE 208 02:45:37 M
688 460 BOURRIER FABRICE V2 115 02:45:42 CLUB MANIKOU ORGANISATIONS M
689 236 ADELE JOREL V3 29 02:45:45 M
690 543 POGNON CYRILLE HERVE V2 116 02:45:47 MADININA BIKERS M
691 862 ALPHONSINE-SERVILLO JEAN-EMMANUEL SE 209 02:45:51 M
692 1038 BERTAILLES KEVIN SE 210 02:45:53 M
693 270 CHESNEAU MICKAEL V1 182 02:46:04 M
694 10 KOWALSKI SANDRINE V1 46 02:46:09 F
695 1227 PETYTAVIN DAVID V1 183 02:46:10 33 RIMA M
696 478 HILLION GERARD V2 117 02:46:11 CLUB MANIKOU ORGANISATIONS M
697 427 LIARD PATRICK V2 118 02:46:12 AMCF M
698 597 PIGNOL JEROME V1 184 02:46:12 TCHIMBE RAID M
699 778 DIDIER DELPHINE SE 48 02:46:16 F
700 1212 MOMMERT Thibaut SE 211 02:46:16 33 RIMA M
701 52 JACOB JEAN-CHRISTOPHE V2 119 02:46:27 LES BAROUDEURS MARTINIQUE M
702 255 CHERY REMI V2 120 02:46:43 M
703 1114 ZOZIME JEAN PAUL V2 121 02:46:51 M
704 91 LUCIEN MAX V2 122 02:46:53 M
705 577 DIALLO JUDITH V1 47 02:46:54 SAM HORIZON 2000 F
706 734 LANCLAS MARIELLE V2 24 02:46:58 CLUB MANIKOU ORGANISATIONS F
707 669 BLAISON LIONEL V1 185 02:47:05 M
708 936 DICANOT PASCAL V1 186 02:47:06 MADININA BIKERS M
709 519 DHALLUIN REMI SE 212 02:47:09 GOLDEN STAR M
710 953 GREGOIRE CHRISTINE V1 48 02:47:10 F
711 832 VIGILANT LEON V1 187 02:47:12 TCHIMBE RAID M
712 646 PHAROSE SABRINA SE 49 02:47:13 F
713 584 FONTAINE FRANTZ V2 123 02:47:21 TCHIMBE RAID M
714 1214 VILLAJOS Boris V1 188 02:47:44 33 RIMA M
715 745 LEVALLOIS CLAIRE SE 50 02:47:46 TEAM INTERSPORT F
716 902 EMICA ESTELLE SE 51 02:48:03 F
717 444 JUBENOT CAROLE V1 49 02:48:13 AVENIR PELEEN F
718 989 SANIDIN MARC V1 189 02:48:14 M
719 120 CORDIER FREDERIC V1 190 02:48:18 M
720 1107 DECAESTEKER JULIE SE 52 02:48:20 F
721 873 BLAND CHRISTOPHE V1 191 02:48:23 M
722 954 WEISS CHARLES V3 30 02:48:25 M
723 62 GLORIANNE CATHERINE V2 25 02:48:26 F
724 88 BAUR CÉLINE SE 53 02:48:31 F
725 86 LE BLEVEC LAURA SE 54 02:48:31 F
726 31 BURE GEORGES V2 124 02:48:35 M
727 263 HARDY RÉGINA V1 50 02:48:42 F
728 394 VANDESTOC CAMILLE SE 213 02:48:51 M
729 147 MALOUINES LOIC V1 192 02:48:52 M
730 552 PRECART GREGORY SE 214 02:49:01 MAIRIE S. (FT-DE-FRANCE) M
731 242 LEBECQUE UGO SE 215 02:49:02 M
732 1044 BONARO ROGER GAETAN V1 193 02:49:02 M
733 181 SANCHO PEGGY V1 51 02:49:07 F
734 609 GUIRAUD CECILE V1 52 02:49:24 VAUCLIN ATHLETIC CLUB F
735 903 DAMBO JOHAN SE 216 02:49:34 M
736 585 MONVILLE-LETU MANUEL V2 125 02:49:38 TCHIMBE RAID M
737 1113 BASTIDE CAMILLE SE 55 02:50:00 F
738 13 BUNOD MAX V3 31 02:50:00 M
739 1064 MOUTAMALLE MANUELLA V1 53 02:50:20 MANIKOU F
740 921 SIMPHOR DIDIER SE 217 02:50:23 M
741 520 BOCHAIN BEATRICE V1 54 02:50:24 GOLDEN STAR F
742 1302 PISANI ROMAIN SE 218 02:50:31 33 RIMA M
743 451 LAVOUMA CLAUDIE V2 26 02:50:36 CG OEUVRES SOCIALES HOSPITALIERES F
744 744 BESSIERES DAVID V1 194 02:50:50 TEAM INTERSPORT M
745 324 DEBRUYN HADRIEN SE 219 02:50:59 M
746 831 DORIZON ALEXANDRA V1 55 02:51:07 F
747 1140 AĎNAMA DANIEL RICHARD V1 195 02:51:07 M
748 96 LATOUCHENT MARIE ADELAIDE SE 56 02:51:19 F
749 214 FLOERSHEIM MATHILDE V1 56 02:51:33 F
750 213 VILO DAVID V2 126 02:51:33 M
751 99 JENASTE SANDTA SE 57 02:51:33 F
752 607 BRIGITTE MARIE-DENISE V2 27 02:51:33 TLT972 F
753 376 GHEMOURI FARIDA V1 57 02:51:34 F
754 447 PERONET JEAN-PIERRE V2 127 02:51:46 CA TEAM M
755 707 LANDAT ELODIE SE 58 02:51:49 F
756 219 LOUZE PHILIPPE V2 128 02:52:02 M
757 737 LARGEN GERARD V1 196 02:52:07 SAM HORIZON M
758 1149 VOINCHET JENNIFER SE 59 02:52:16 F
759 271 BELLEGARDE AXELLE SE 60 02:52:18 F
760 595 TALMANN ANDRE V4 4 02:52:30 TCHIMBE RAID M
761 201 IRASQUE ALEX V2 129 02:52:31 M
762 848 TEPAUT MICHEL SE 220 02:52:34 M
763 118 FRANCOIS-ENDELMONT PATRICIA SE 61 02:52:36 F
764 894 SY JEAN CLAUDE V2 130 02:52:50 CLUB MANIKOU ORGANISATIONS M
765 266 GUERIN EMMA SE 62 02:52:59 F
766 628 TARDIEU LAURENE SE 63 02:53:02 F
767 361 FANNIS BEATRICE SE 64 02:53:09 F
768 1235 MICHEL DAVID V2 131 02:53:12 33 RIMA M
769 25 SEBASTIEN JOSE WASHINGTON V2 132 02:53:14 M
770 501 MICHAUX AXELLE SE 65 02:53:15 GOLDEN STAR F
771 1089 FERRAND SEVERINE V1 58 02:53:15 F
772 1086 CRATER RONALD V1 197 02:53:17 M
773 5 CORIDON HERVÉ V1 198 02:53:17 M
774 608 PARSEMAIN WILLIAMS V1 199 02:53:27 TRANSIT SPORT FRANCISCAIN M
775 220 DARIBO MARIE OLGA V2 28 02:53:28 F
776 1159 ZAIRE CHARLES V3 32 02:53:33 MAIRIE S. (FT-DE-FRANCE) M
777 1142 MARION CAROLINE SE 66 02:53:35 F
778 257 LOUISONNE THIERRY V2 133 02:53:36 M
779 152 FRANCOIS JEAN-NICOLAS SE 221 02:53:44 M
780 311 CORNAILLE SOPHIE V1 59 02:54:00 F
781 473 JULIUS KARINE SE 67 02:54:07 CLUB MANIKOU ORGANISATIONS F
782 934 JUSTE JEAN-MARC SE 222 02:54:07 M
783 224 JEAN BAPTISTE FABRICE V1 200 02:54:27 M
784 1190 DEVISMES Matisse JU 4 02:54:29 33 RIMA M
785 1083 DULYS SONIA V2 29 02:54:36 GOLDEN STAR F